createdAt,value
2018-08-03T00:00:08.657Z,8.20
2018-08-03T00:01:08.643Z,8.40
2018-08-03T00:02:08.630Z,8.20
2018-08-03T00:03:08.645Z,8.40
2018-08-03T00:04:08.613Z,7.40
2018-08-03T00:05:08.601Z,7.40
2018-08-03T00:06:08.589Z,7.50
2018-08-03T00:07:08.581Z,7.70
2018-08-03T00:08:08.566Z,7.70
2018-08-03T00:09:08.583Z,7.70
2018-08-03T00:10:08.551Z,7.70
2018-08-03T00:11:08.541Z,8.70
2018-08-03T00:12:08.522Z,7.30
2018-08-03T00:13:08.512Z,7.60
2018-08-03T00:14:08.527Z,7.50
2018-08-03T00:15:08.489Z,8.00
2018-08-03T00:16:08.499Z,8.00
2018-08-03T00:17:08.486Z,8.40
2018-08-03T00:18:08.474Z,7.90
2018-08-03T00:19:08.455Z,7.80
2018-08-03T00:20:08.454Z,7.60
2018-08-03T00:21:08.427Z,8.40
2018-08-03T00:22:08.415Z,8.10
2018-08-03T00:23:08.411Z,7.30
2018-08-03T00:24:08.403Z,7.80
2018-08-03T00:25:08.413Z,7.50
2018-08-03T00:26:08.389Z,7.40
2018-08-03T00:27:08.359Z,8.00
2018-08-03T00:28:08.355Z,7.70
2018-08-03T00:29:08.342Z,8.50
2018-08-03T00:30:08.353Z,7.40
2018-08-03T00:31:08.324Z,7.50
2018-08-03T00:32:08.306Z,7.50
2018-08-03T00:33:08.327Z,7.30
2018-08-03T00:34:08.292Z,7.90
2018-08-03T00:35:08.325Z,7.70
2018-08-03T00:36:08.281Z,7.80
2018-08-03T00:37:08.264Z,7.80
2018-08-03T00:38:08.250Z,7.50
2018-08-03T00:39:08.239Z,8.40
2018-08-03T00:40:08.242Z,8.20
2018-08-03T00:41:08.222Z,8.20
2018-08-03T00:42:08.204Z,8.20
2018-08-03T00:43:08.193Z,7.70
2018-08-03T00:44:08.175Z,7.70
2018-08-03T00:45:08.194Z,7.80
2018-08-03T00:46:08.156Z,8.00
2018-08-03T00:47:08.150Z,7.70
2018-08-03T00:48:08.139Z,8.10
2018-08-03T00:49:08.130Z,7.30
2018-08-03T00:50:08.134Z,7.40
2018-08-03T00:51:08.107Z,7.60
2018-08-03T00:52:08.091Z,7.80
2018-08-03T00:53:08.085Z,7.60
2018-08-03T00:54:08.069Z,7.60
2018-08-03T00:55:08.076Z,8.10
2018-08-03T00:56:08.058Z,8.80
2018-08-03T00:57:08.048Z,8.80
2018-08-03T00:58:08.032Z,7.80
2018-08-03T00:59:08.015Z,8.40
2018-08-03T01:00:08.042Z,7.90
2018-08-03T01:01:07.999Z,7.80
2018-08-03T01:02:07.995Z,7.90
2018-08-03T01:03:07.985Z,7.40
2018-08-03T01:04:07.976Z,8.50
2018-08-03T01:05:07.979Z,8.90
2018-08-03T01:06:07.954Z,8.70
2018-08-03T01:07:07.956Z,8.30
2018-08-03T01:08:07.952Z,8.60
2018-08-03T01:09:07.985Z,7.80
2018-08-03T01:10:07.958Z,7.80
2018-08-03T01:11:07.937Z,8.50
2018-08-03T01:12:07.899Z,8.20
2018-08-03T01:13:07.893Z,8.40
2018-08-03T01:14:07.880Z,8.20
2018-08-03T01:15:07.893Z,8.80
2018-08-03T01:16:07.834Z,8.60
2018-08-03T01:17:07.837Z,8.90
2018-08-03T01:18:07.813Z,9.00
2018-08-03T01:19:07.797Z,8.90
2018-08-03T01:20:07.811Z,9.00
2018-08-03T01:21:07.779Z,9.00
2018-08-03T01:22:07.769Z,8.80
2018-08-03T01:23:07.761Z,8.80
2018-08-03T01:24:07.753Z,8.40
2018-08-03T01:25:07.754Z,8.30
2018-08-03T01:26:07.723Z,8.80
2018-08-03T01:27:07.710Z,8.50
2018-08-03T01:28:07.705Z,9.10
2018-08-03T01:29:07.693Z,9.60
2018-08-03T01:30:07.708Z,9.30
2018-08-03T01:31:07.667Z,9.20
2018-08-03T01:32:07.665Z,9.10
2018-08-03T01:33:07.650Z,8.80
2018-08-03T01:34:07.643Z,8.50
2018-08-03T01:35:07.633Z,8.90
2018-08-03T01:36:07.644Z,9.00
2018-08-03T01:37:07.616Z,8.70
2018-08-03T01:38:07.607Z,8.70
2018-08-03T01:39:07.579Z,9.60
2018-08-03T01:40:07.576Z,9.10
2018-08-03T01:41:07.599Z,8.40
2018-08-03T01:42:07.558Z,8.90
2018-08-03T01:43:07.546Z,8.50
2018-08-03T01:44:07.525Z,9.30
2018-08-03T01:45:07.515Z,8.70
2018-08-03T01:46:07.527Z,8.80
2018-08-03T01:47:07.499Z,8.90
2018-08-03T01:48:07.483Z,8.90
2018-08-03T01:49:07.475Z,8.80
2018-08-03T01:50:07.465Z,9.00
2018-08-03T01:51:07.474Z,9.10
2018-08-03T01:52:07.446Z,9.30
2018-08-03T01:53:07.433Z,9.40
2018-08-03T01:54:07.421Z,9.30
2018-08-03T01:55:07.416Z,8.90
2018-08-03T01:56:07.422Z,8.40
2018-08-03T01:57:07.387Z,8.90
2018-08-03T01:58:07.377Z,10.00
2018-08-03T01:59:07.386Z,10.10
2018-08-03T02:00:07.360Z,10.10
2018-08-03T02:01:07.346Z,9.20
2018-08-03T02:02:07.353Z,10.00
2018-08-03T02:03:07.374Z,9.80
2018-08-03T02:04:07.316Z,9.20
2018-08-03T02:05:07.303Z,9.00
2018-08-03T02:06:07.291Z,9.70
2018-08-03T02:07:07.309Z,9.50
2018-08-03T02:08:07.264Z,9.90
2018-08-03T02:09:07.257Z,9.60
2018-08-03T02:10:07.246Z,9.10
2018-08-03T02:11:07.250Z,8.10
2018-08-03T02:12:07.233Z,8.40
2018-08-03T02:13:07.279Z,8.80
2018-08-03T02:14:07.204Z,9.90
2018-08-03T02:15:07.196Z,9.80
2018-08-03T02:16:07.184Z,10.00
2018-08-03T02:17:07.169Z,9.60
2018-08-03T02:18:07.161Z,10.00
2018-08-03T02:19:07.180Z,9.50
2018-08-03T02:20:07.138Z,10.50
2018-08-03T02:21:07.125Z,10.70
2018-08-03T02:22:07.116Z,10.50
2018-08-03T02:23:07.102Z,10.70
2018-08-03T02:24:07.099Z,10.40
2018-08-03T02:25:07.104Z,8.80
2018-08-03T02:26:07.077Z,9.30
2018-08-03T02:27:07.065Z,9.20
2018-08-03T02:28:07.063Z,9.60
2018-08-03T02:29:07.040Z,10.30
2018-08-03T02:30:07.059Z,9.80
2018-08-03T02:31:07.016Z,10.90
2018-08-03T02:32:07.011Z,11.00
2018-08-03T02:33:06.998Z,11.40
2018-08-03T02:34:06.985Z,10.60
2018-08-03T02:35:06.976Z,11.00
2018-08-03T02:36:07.002Z,10.50
2018-08-03T02:37:06.955Z,10.50
2018-08-03T02:38:06.949Z,11.00
2018-08-03T02:39:06.943Z,9.70
2018-08-03T02:40:06.918Z,11.40
2018-08-03T02:41:06.915Z,11.50
2018-08-03T02:42:06.933Z,10.60
2018-08-03T02:43:06.884Z,11.30
2018-08-03T02:44:06.881Z,11.40
2018-08-03T02:45:06.866Z,11.20
2018-08-03T02:46:06.887Z,11.00
2018-08-03T02:47:06.849Z,10.80
2018-08-03T02:48:06.832Z,10.70
2018-08-03T02:49:06.825Z,11.20
2018-08-03T02:50:06.813Z,10.80
2018-08-03T02:51:06.804Z,10.10
2018-08-03T02:52:06.809Z,9.80
2018-08-03T02:53:06.780Z,10.20
2018-08-03T02:54:06.768Z,10.10
2018-08-03T02:55:06.755Z,10.30
2018-08-03T02:56:06.750Z,10.70
2018-08-03T02:57:06.765Z,11.00
2018-08-03T02:58:06.727Z,11.10
2018-08-03T02:59:06.718Z,11.60
2018-08-03T03:00:06.703Z,10.90
2018-08-03T03:01:06.691Z,11.70
2018-08-03T03:02:06.681Z,10.40
2018-08-03T03:03:06.695Z,11.00
2018-08-03T03:04:06.665Z,11.90
2018-08-03T03:05:06.652Z,11.00
2018-08-03T03:06:06.637Z,11.30
2018-08-03T03:07:06.627Z,12.50
2018-08-03T03:08:06.620Z,12.00
2018-08-03T03:09:06.642Z,11.60
2018-08-03T03:10:06.606Z,11.90
2018-08-03T03:11:06.589Z,12.50
2018-08-03T03:12:06.590Z,12.00
2018-08-03T03:13:06.569Z,11.40
2018-08-03T03:14:06.568Z,11.80
2018-08-03T03:15:06.568Z,10.50
2018-08-03T03:16:06.539Z,10.70
2018-08-03T03:17:06.520Z,10.80
2018-08-03T03:18:06.509Z,10.40
2018-08-03T03:19:06.502Z,10.90
2018-08-03T03:20:06.487Z,10.70
2018-08-03T03:21:06.501Z,10.80
2018-08-03T03:22:06.466Z,10.10
2018-08-03T03:23:06.456Z,10.20
2018-08-03T03:24:06.438Z,11.20
2018-08-03T03:25:06.431Z,11.00
2018-08-03T03:26:06.443Z,11.30
2018-08-03T03:27:06.416Z,11.50
2018-08-03T03:28:06.424Z,11.80
2018-08-03T03:29:06.394Z,12.00
2018-08-03T03:30:06.382Z,12.40
2018-08-03T03:31:06.389Z,12.60
2018-08-03T03:32:06.360Z,12.70
2018-08-03T03:33:06.370Z,12.20
2018-08-03T03:34:06.393Z,12.70
2018-08-03T03:35:06.356Z,13.40
2018-08-03T03:36:06.348Z,12.50
2018-08-03T03:37:06.376Z,12.90
2018-08-03T03:38:06.352Z,12.50
2018-08-03T03:39:06.314Z,13.20
2018-08-03T03:40:06.308Z,13.00
2018-08-03T03:41:06.257Z,12.20
2018-08-03T03:42:06.246Z,11.50
2018-08-03T03:43:06.263Z,11.00
2018-08-03T03:44:06.245Z,11.00
2018-08-03T03:45:06.216Z,12.30
2018-08-03T03:46:06.205Z,12.70
2018-08-03T03:47:06.227Z,13.30
2018-08-03T03:48:06.193Z,13.40
2018-08-03T03:49:06.227Z,13.80
2018-08-03T03:50:06.192Z,14.50
2018-08-03T03:51:06.192Z,12.30
2018-08-03T03:52:06.179Z,13.80
2018-08-03T03:53:06.142Z,13.20
2018-08-03T03:54:06.129Z,13.20
2018-08-03T03:55:06.142Z,12.30
2018-08-03T03:56:06.101Z,12.60
2018-08-03T03:57:06.085Z,14.00
2018-08-03T03:58:06.074Z,13.30
2018-08-03T03:59:06.124Z,12.70
2018-08-03T04:00:06.076Z,13.20
2018-08-03T04:01:06.041Z,13.20
2018-08-03T04:02:06.029Z,14.40
2018-08-03T04:03:06.016Z,14.40
2018-08-03T04:04:06.011Z,12.50
2018-08-03T04:05:06.011Z,12.80
2018-08-03T04:06:06.026Z,12.00
2018-08-03T04:07:05.999Z,12.50
2018-08-03T04:08:05.997Z,12.50
2018-08-03T04:09:06.004Z,12.70
2018-08-03T04:10:05.998Z,12.20
2018-08-03T04:11:06.055Z,12.80
2018-08-03T04:12:05.996Z,13.80
2018-08-03T04:13:06.006Z,14.80
2018-08-03T04:14:05.983Z,15.30
2018-08-03T04:15:05.927Z,14.80
2018-08-03T04:16:05.920Z,15.30
2018-08-03T04:17:05.881Z,14.20
2018-08-03T04:18:05.924Z,14.50
2018-08-03T04:19:05.853Z,13.80
2018-08-03T04:20:05.832Z,14.90
2018-08-03T04:21:05.822Z,14.70
2018-08-03T04:22:05.889Z,14.40
2018-08-03T04:23:05.842Z,14.80
2018-08-03T04:24:05.795Z,14.80
2018-08-03T04:25:05.786Z,14.80
2018-08-03T04:26:05.786Z,13.60
2018-08-03T04:27:05.761Z,13.70
2018-08-03T04:28:05.750Z,12.90
2018-08-03T04:29:05.756Z,12.80
2018-08-03T04:30:05.730Z,12.70
2018-08-03T04:31:05.717Z,13.00
2018-08-03T04:32:05.701Z,13.40
2018-08-03T04:33:05.699Z,14.30
2018-08-03T04:34:05.719Z,15.20
2018-08-03T04:35:05.669Z,15.30
2018-08-03T04:36:05.664Z,15.40
2018-08-03T04:37:05.671Z,14.20
2018-08-03T04:38:05.694Z,15.40
2018-08-03T04:39:05.741Z,15.10
2018-08-03T04:40:05.639Z,15.40
2018-08-03T04:41:05.605Z,16.00
2018-08-03T04:42:05.617Z,15.40
2018-08-03T04:43:05.593Z,15.40
2018-08-03T04:44:05.626Z,15.70
2018-08-03T04:45:05.561Z,15.00
2018-08-03T04:46:05.593Z,14.50
2018-08-03T04:47:05.537Z,13.70
2018-08-03T04:48:05.535Z,13.70
2018-08-03T04:49:05.520Z,13.00
2018-08-03T04:50:05.513Z,13.60
2018-08-03T04:51:05.501Z,13.30
2018-08-03T04:52:05.523Z,13.20
2018-08-03T04:53:05.483Z,13.00
2018-08-03T04:54:05.464Z,14.10
2018-08-03T04:55:05.452Z,13.50
2018-08-03T04:56:05.458Z,14.60
2018-08-03T04:57:05.443Z,16.20
2018-08-03T04:58:05.454Z,15.00
2018-08-03T04:59:05.406Z,14.80
2018-08-03T05:00:05.405Z,15.50
2018-08-03T05:01:05.394Z,15.70
2018-08-03T05:02:05.379Z,13.80
2018-08-03T05:03:05.375Z,13.50
2018-08-03T05:04:05.376Z,14.00
2018-08-03T05:05:05.366Z,14.60
2018-08-03T05:06:05.334Z,13.90
2018-08-03T05:07:05.338Z,14.00
2018-08-03T05:08:05.395Z,14.30
2018-08-03T05:09:05.331Z,14.90
2018-08-03T05:10:05.291Z,16.10
2018-08-03T05:11:05.285Z,16.10
2018-08-03T05:12:05.266Z,16.80
2018-08-03T05:13:05.257Z,16.80
2018-08-03T05:14:05.248Z,13.10
2018-08-03T05:15:05.259Z,14.70
2018-08-03T05:16:05.224Z,14.80
2018-08-03T05:17:05.214Z,14.90
2018-08-03T05:18:05.204Z,15.30
2018-08-03T05:19:05.192Z,14.40
2018-08-03T05:20:05.216Z,13.80
2018-08-03T05:21:05.173Z,13.80
2018-08-03T05:22:05.174Z,13.50
2018-08-03T05:23:05.198Z,12.80
2018-08-03T05:24:05.143Z,13.30
2018-08-03T05:25:05.185Z,13.60
2018-08-03T05:26:05.150Z,13.80
2018-08-03T05:27:05.105Z,13.00
2018-08-03T05:28:05.103Z,14.50
2018-08-03T05:29:05.089Z,14.20
2018-08-03T05:30:05.081Z,15.20
2018-08-03T05:31:05.062Z,13.00
2018-08-03T05:32:05.086Z,13.10
2018-08-03T05:33:05.046Z,13.30
2018-08-03T05:34:05.042Z,13.50
2018-08-03T05:35:05.041Z,13.40
2018-08-03T05:36:05.091Z,12.80
2018-08-03T05:37:05.000Z,12.80
2018-08-03T05:38:05.014Z,13.70
2018-08-03T05:39:04.977Z,13.30
2018-08-03T05:40:04.973Z,13.70
2018-08-03T05:41:04.975Z,14.10
2018-08-03T05:42:04.951Z,13.50
2018-08-03T05:43:04.941Z,13.30
2018-08-03T05:44:04.955Z,13.50
2018-08-03T05:45:04.926Z,12.80
2018-08-03T05:46:04.911Z,12.00
2018-08-03T05:47:04.912Z,12.20
2018-08-03T05:48:04.883Z,12.30
2018-08-03T05:49:04.880Z,12.80
2018-08-03T05:50:04.893Z,11.70
2018-08-03T05:51:04.848Z,11.90
2018-08-03T05:52:04.842Z,12.00
2018-08-03T05:53:04.837Z,13.20
2018-08-03T05:54:04.818Z,12.00
2018-08-03T05:55:04.810Z,11.60
2018-08-03T05:56:04.819Z,12.20
2018-08-03T05:57:04.782Z,12.40
2018-08-03T05:58:04.836Z,10.80
2018-08-03T05:59:04.760Z,11.70
2018-08-03T06:00:04.772Z,10.90
2018-08-03T06:01:04.741Z,11.20
2018-08-03T06:02:04.755Z,11.10
2018-08-03T06:03:04.720Z,11.00
2018-08-03T06:04:04.774Z,11.50
2018-08-03T06:05:04.715Z,11.30
2018-08-03T06:06:04.687Z,10.80
2018-08-03T06:07:04.696Z,10.60
2018-08-03T06:08:04.759Z,11.10
2018-08-03T06:09:04.690Z,11.30
2018-08-03T06:10:04.654Z,10.90
2018-08-03T06:11:04.654Z,10.90
2018-08-03T06:12:04.629Z,11.80
2018-08-03T06:13:04.689Z,11.10
2018-08-03T06:14:04.601Z,11.30
2018-08-03T06:15:04.595Z,11.20
2018-08-03T06:16:04.596Z,11.20
2018-08-03T06:17:04.572Z,10.50
2018-08-03T06:18:04.611Z,10.40
2018-08-03T06:19:04.634Z,10.60
2018-08-03T06:20:04.603Z,10.40
2018-08-03T06:21:04.539Z,10.20
2018-08-03T06:22:04.524Z,10.30
2018-08-03T06:23:04.506Z,10.30
2018-08-03T06:24:04.496Z,8.90
2018-08-03T06:25:04.511Z,10.10
2018-08-03T06:26:04.473Z,10.30
2018-08-03T06:27:04.477Z,10.70
2018-08-03T06:28:04.452Z,10.70
2018-08-03T06:29:04.442Z,11.20
2018-08-03T06:30:04.431Z,10.00
2018-08-03T06:31:04.442Z,10.40
2018-08-03T06:32:04.423Z,9.90
2018-08-03T06:33:04.399Z,9.90
2018-08-03T06:34:04.413Z,10.50
2018-08-03T06:35:04.371Z,10.10
2018-08-03T06:36:04.368Z,10.60
2018-08-03T06:37:04.395Z,9.80
2018-08-03T06:38:04.399Z,10.50
2018-08-03T06:39:04.335Z,9.90
2018-08-03T06:40:04.317Z,10.70
2018-08-03T06:41:04.314Z,10.10
2018-08-03T06:42:04.303Z,9.80
2018-08-03T06:43:04.325Z,9.70
2018-08-03T06:44:04.282Z,10.40
2018-08-03T06:45:04.270Z,9.60
2018-08-03T06:46:04.257Z,9.30
2018-08-03T06:47:04.250Z,9.80
2018-08-03T06:48:04.233Z,9.70
2018-08-03T06:49:04.263Z,9.50
2018-08-03T06:50:04.262Z,9.30
2018-08-03T06:51:04.252Z,8.90
2018-08-03T06:52:04.189Z,9.50
2018-08-03T06:53:04.181Z,9.70
2018-08-03T06:54:04.178Z,9.40
2018-08-03T06:55:04.197Z,9.30
2018-08-03T06:56:04.177Z,9.60
2018-08-03T06:57:04.145Z,9.60
2018-08-03T06:58:04.142Z,9.30
2018-08-03T06:59:04.153Z,8.70
2018-08-03T07:00:04.169Z,9.50
2018-08-03T07:01:04.112Z,9.00
2018-08-03T07:02:04.409Z,9.20
2018-08-03T07:03:04.071Z,9.40
2018-08-03T07:04:04.069Z,8.90
2018-08-03T07:05:04.056Z,8.80
2018-08-03T07:06:04.060Z,8.60
2018-08-03T07:07:04.028Z,8.60
2018-08-03T07:08:04.045Z,8.90
2018-08-03T07:09:04.053Z,9.00
2018-08-03T07:10:04.009Z,8.90
2018-08-03T07:11:04.028Z,8.80
2018-08-03T07:12:03.977Z,8.50
2018-08-03T07:13:03.980Z,17.60
2018-08-03T07:14:03.957Z,10.30
2018-08-03T07:15:03.947Z,9.50
2018-08-03T07:16:03.939Z,8.80
2018-08-03T07:17:03.951Z,9.10
2018-08-03T07:18:03.927Z,9.30
2018-08-03T07:19:03.916Z,11.00
2018-08-03T07:20:03.954Z,10.90
2018-08-03T07:21:03.879Z,9.60
2018-08-03T07:22:03.872Z,11.10
2018-08-03T07:23:03.893Z,12.20
2018-08-03T07:24:03.844Z,10.40
2018-08-03T07:25:03.847Z,9.50
2018-08-03T07:26:03.825Z,10.60
2018-08-03T07:27:03.819Z,10.50
2018-08-03T07:28:03.810Z,10.00
2018-08-03T07:29:03.833Z,9.20
2018-08-03T07:30:03.785Z,9.70
2018-08-03T07:31:03.786Z,8.60
2018-08-03T07:32:03.773Z,8.30
2018-08-03T07:33:03.747Z,10.30
2018-08-03T07:34:03.742Z,8.70
2018-08-03T07:35:03.756Z,8.60
2018-08-03T07:36:03.725Z,8.80
2018-08-03T07:37:03.709Z,8.00
2018-08-03T07:38:03.701Z,7.60
2018-08-03T07:39:03.684Z,8.20
2018-08-03T07:40:03.760Z,9.10
2018-08-03T07:41:03.696Z,8.00
2018-08-03T07:42:03.669Z,8.50
2018-08-03T07:43:03.682Z,8.10
2018-08-03T07:44:03.635Z,7.90
2018-08-03T07:45:03.733Z,7.80
2018-08-03T07:46:03.639Z,7.80
2018-08-03T07:47:03.662Z,9.00
2018-08-03T07:48:03.592Z,7.50
2018-08-03T07:49:03.589Z,7.50
2018-08-03T07:50:03.576Z,8.20
2018-08-03T07:51:03.583Z,7.50
2018-08-03T07:52:03.565Z,7.30
2018-08-03T07:53:03.604Z,7.00
2018-08-03T07:54:03.535Z,7.70
2018-08-03T07:55:03.520Z,7.10
2018-08-03T07:56:03.506Z,7.60
2018-08-03T07:57:03.497Z,7.20
2018-08-03T07:58:03.487Z,7.60
2018-08-03T07:59:03.522Z,7.40
2018-08-03T08:00:03.467Z,7.70
2018-08-03T08:01:03.468Z,7.50
2018-08-03T08:02:03.463Z,7.80
2018-08-03T08:03:03.437Z,7.60
2018-08-03T08:04:03.421Z,7.40
2018-08-03T08:05:03.438Z,7.50
2018-08-03T08:06:03.413Z,7.20
2018-08-03T08:07:03.398Z,7.40
2018-08-03T08:08:03.406Z,8.20
2018-08-03T08:09:03.371Z,7.20
2018-08-03T08:10:03.365Z,6.60
2018-08-03T08:11:03.375Z,6.80
2018-08-03T08:12:03.341Z,7.10
2018-08-03T08:13:03.345Z,6.50
2018-08-03T08:14:03.316Z,7.30
2018-08-03T08:15:03.306Z,7.20
2018-08-03T08:16:03.293Z,7.30
2018-08-03T08:17:03.327Z,7.20
2018-08-03T08:18:03.267Z,6.50
2018-08-03T08:19:03.259Z,7.00
2018-08-03T08:20:03.251Z,6.80
2018-08-03T08:21:03.286Z,7.00
2018-08-03T08:22:03.244Z,6.70
2018-08-03T08:23:03.218Z,6.70
2018-08-03T08:24:03.210Z,6.60
2018-08-03T08:25:03.194Z,6.80
2018-08-03T08:26:03.246Z,6.80
2018-08-03T08:27:03.231Z,6.70
2018-08-03T08:28:03.164Z,6.70
2018-08-03T08:29:03.165Z,6.40
2018-08-03T08:30:03.141Z,6.60
2018-08-03T08:31:03.136Z,6.60
2018-08-03T08:32:03.136Z,6.70
2018-08-03T08:33:03.170Z,6.60
2018-08-03T08:34:03.117Z,6.50
2018-08-03T08:35:03.110Z,6.60
2018-08-03T08:36:03.129Z,6.20
2018-08-03T08:37:03.128Z,6.50
2018-08-03T08:38:03.060Z,6.40
2018-08-03T08:39:03.084Z,6.10
2018-08-03T08:40:03.047Z,6.30
2018-08-03T08:41:03.034Z,6.10
2018-08-03T08:42:03.018Z,6.30
2018-08-03T08:43:03.010Z,6.80
2018-08-03T08:44:03.009Z,6.50
2018-08-03T08:45:03.015Z,6.40
2018-08-03T08:46:02.984Z,6.10
2018-08-03T08:47:02.985Z,6.10
2018-08-03T08:48:02.962Z,6.50
2018-08-03T08:49:03.004Z,6.70
2018-08-03T08:50:02.972Z,6.10
2018-08-03T08:51:02.929Z,6.40
2018-08-03T08:52:02.921Z,6.20
2018-08-03T08:53:02.915Z,6.20
2018-08-03T08:54:02.902Z,6.50
2018-08-03T08:55:02.901Z,6.30
2018-08-03T08:56:02.922Z,6.10
2018-08-03T08:57:02.866Z,6.20
2018-08-03T08:58:02.864Z,6.20
2018-08-03T08:59:02.863Z,6.50
2018-08-03T09:00:02.839Z,6.30
2018-08-03T09:01:02.928Z,6.10
2018-08-03T09:02:02.817Z,5.90
2018-08-03T09:03:02.811Z,6.30
2018-08-03T09:04:02.811Z,6.20
2018-08-03T09:05:02.832Z,6.50
2018-08-03T09:06:02.783Z,6.00
2018-08-03T09:07:02.798Z,6.20
2018-08-03T09:08:02.760Z,5.90
2018-08-03T09:09:02.747Z,6.00
2018-08-03T09:10:02.737Z,5.90
2018-08-03T09:11:02.730Z,5.70
2018-08-03T09:12:02.721Z,6.10
2018-08-03T09:13:02.748Z,6.10
2018-08-03T09:14:02.699Z,6.00
2018-08-03T09:15:02.708Z,5.90
2018-08-03T09:16:02.704Z,6.00
2018-08-03T09:17:02.690Z,5.90
2018-08-03T09:18:02.666Z,6.00
2018-08-03T09:19:02.681Z,5.70
2018-08-03T09:20:02.645Z,5.80
2018-08-03T09:21:02.641Z,6.00
2018-08-03T09:22:02.668Z,5.60
2018-08-03T09:23:02.617Z,5.90
2018-08-03T09:24:02.637Z,5.80
2018-08-03T09:25:02.660Z,5.90
2018-08-03T09:26:02.588Z,5.70
2018-08-03T09:27:02.585Z,6.20
2018-08-03T09:28:02.565Z,5.80
2018-08-03T09:29:02.559Z,5.60
2018-08-03T09:30:02.645Z,6.00
2018-08-03T09:31:02.633Z,5.80
2018-08-03T09:32:02.527Z,5.30
2018-08-03T09:33:02.513Z,5.40
2018-08-03T09:34:02.505Z,5.30
2018-08-03T09:35:02.515Z,5.90
2018-08-03T09:36:02.488Z,5.40
2018-08-03T09:37:02.481Z,5.40
2018-08-03T09:38:02.475Z,5.70
2018-08-03T09:39:02.526Z,6.10
2018-08-03T09:40:02.491Z,6.00
2018-08-03T09:41:02.433Z,5.80
2018-08-03T09:42:02.424Z,5.90
2018-08-03T09:43:02.463Z,5.70
2018-08-03T09:44:02.427Z,5.20
2018-08-03T09:45:02.401Z,5.40
2018-08-03T09:46:02.384Z,6.00
2018-08-03T09:47:02.378Z,5.50
2018-08-03T09:48:02.369Z,5.20
2018-08-03T09:49:02.382Z,5.70
2018-08-03T09:50:02.352Z,6.00
2018-08-03T09:51:02.339Z,6.00
2018-08-03T09:52:02.326Z,5.70
2018-08-03T09:53:02.317Z,5.90
2018-08-03T09:54:02.334Z,5.90
2018-08-03T09:55:02.302Z,6.10
2018-08-03T09:56:02.287Z,5.70
2018-08-03T09:57:02.282Z,5.80
2018-08-03T09:58:02.268Z,5.80
2018-08-03T09:59:02.282Z,6.10
2018-08-03T10:00:02.276Z,6.10
2018-08-03T10:01:02.230Z,6.00
2018-08-03T10:02:02.225Z,5.80
2018-08-03T10:03:02.216Z,5.80
2018-08-03T10:04:02.212Z,5.80
2018-08-03T10:05:02.241Z,5.90
2018-08-03T10:06:02.190Z,6.30
2018-08-03T10:07:02.177Z,6.20
2018-08-03T10:08:02.174Z,6.50
2018-08-03T10:09:02.174Z,5.80
2018-08-03T10:10:02.142Z,5.90
2018-08-03T10:11:02.157Z,5.90
2018-08-03T10:12:02.175Z,5.80
2018-08-03T10:13:02.127Z,6.10
2018-08-03T10:14:02.095Z,6.10
2018-08-03T10:15:02.092Z,5.70
2018-08-03T10:16:02.080Z,5.70
2018-08-03T10:17:02.090Z,5.40
2018-08-03T10:18:02.056Z,5.40
2018-08-03T10:19:02.059Z,5.80
2018-08-03T10:20:02.039Z,5.80
2018-08-03T10:21:02.033Z,5.60
2018-08-03T10:22:02.056Z,5.60
2018-08-03T10:23:02.017Z,5.50
2018-08-03T10:24:01.997Z,5.30
2018-08-03T10:25:01.985Z,5.20
2018-08-03T10:26:01.996Z,4.80
2018-08-03T10:27:01.969Z,5.50
2018-08-03T10:28:01.984Z,5.40
2018-08-03T10:29:01.951Z,5.70
2018-08-03T10:30:01.941Z,5.80
2018-08-03T10:31:01.930Z,5.50
2018-08-03T10:32:01.926Z,5.50
2018-08-03T10:33:01.902Z,5.30
2018-08-03T10:34:01.939Z,5.60
2018-08-03T10:35:01.913Z,5.40
2018-08-03T10:36:01.872Z,5.30
2018-08-03T10:37:01.865Z,5.50
2018-08-03T10:38:01.858Z,5.40
2018-08-03T10:39:01.851Z,5.50
2018-08-03T10:40:01.865Z,5.70
2018-08-03T10:41:01.872Z,5.50
2018-08-03T10:42:01.834Z,5.80
2018-08-03T10:43:01.848Z,5.20
2018-08-03T10:44:01.793Z,5.70
2018-08-03T10:45:01.834Z,5.20
2018-08-03T10:46:01.771Z,5.40
2018-08-03T10:47:01.803Z,5.30
2018-08-03T10:48:01.755Z,4.90
2018-08-03T10:49:01.748Z,5.30
2018-08-03T10:50:01.758Z,5.20
2018-08-03T10:51:01.731Z,5.20
2018-08-03T10:52:01.726Z,5.70
2018-08-03T10:53:01.708Z,5.40
2018-08-03T10:54:01.699Z,5.60
2018-08-03T10:55:01.687Z,5.40
2018-08-03T10:56:01.712Z,5.60
2018-08-03T10:57:01.670Z,4.90
2018-08-03T10:58:01.659Z,5.20
2018-08-03T10:59:01.642Z,4.90
2018-08-03T11:00:01.636Z,5.40
2018-08-03T11:01:01.630Z,5.00
2018-08-03T11:02:01.652Z,5.10
2018-08-03T11:03:01.647Z,4.80
2018-08-03T11:04:01.592Z,5.30
2018-08-03T11:05:01.589Z,5.20
2018-08-03T11:06:01.585Z,5.20
2018-08-03T11:07:01.566Z,5.00
2018-08-03T11:08:01.584Z,5.50
2018-08-03T11:09:01.542Z,4.70
2018-08-03T11:10:01.531Z,4.80
2018-08-03T11:11:01.523Z,5.20
2018-08-03T11:12:01.513Z,5.70
2018-08-03T11:13:01.508Z,5.40
2018-08-03T11:14:01.559Z,5.30
2018-08-03T11:15:01.496Z,5.10
2018-08-03T11:16:01.468Z,5.50
2018-08-03T11:17:01.456Z,5.50
2018-08-03T11:18:01.466Z,5.40
2018-08-03T11:19:01.467Z,5.30
2018-08-03T11:20:01.430Z,5.30
2018-08-03T11:21:01.428Z,5.30
2018-08-03T11:22:01.407Z,5.10
2018-08-03T11:23:01.400Z,5.20
2018-08-03T11:24:01.607Z,5.00
2018-08-03T11:25:01.386Z,5.30
2018-08-03T11:26:01.377Z,5.20
2018-08-03T11:27:01.368Z,5.00
2018-08-03T11:28:01.367Z,4.60
2018-08-03T11:29:01.352Z,5.00
2018-08-03T11:30:01.363Z,5.50
2018-08-03T11:31:01.344Z,5.20
2018-08-03T11:32:01.331Z,4.90
2018-08-03T11:33:01.315Z,4.90
2018-08-03T11:34:01.317Z,5.00
2018-08-03T11:35:01.321Z,4.90
2018-08-03T11:36:01.356Z,4.70
2018-08-03T11:37:01.275Z,4.80
2018-08-03T11:38:01.281Z,4.60
2018-08-03T11:39:01.266Z,4.80
2018-08-03T11:40:01.254Z,4.40
2018-08-03T11:41:01.242Z,4.50
2018-08-03T11:42:01.262Z,4.50
2018-08-03T11:43:01.231Z,4.60
2018-08-03T11:44:01.237Z,4.40
2018-08-03T11:45:01.216Z,4.50
2018-08-03T11:46:01.208Z,5.00
2018-08-03T11:47:01.198Z,4.60
2018-08-03T11:48:01.216Z,4.60
2018-08-03T11:49:01.188Z,4.90
2018-08-03T11:50:01.174Z,4.60
2018-08-03T11:51:01.161Z,4.70
2018-08-03T11:52:01.157Z,4.80
2018-08-03T11:53:01.164Z,4.80
2018-08-03T11:54:01.249Z,5.10
2018-08-03T11:55:01.121Z,4.80
2018-08-03T11:56:01.114Z,5.10
2018-08-03T11:57:01.109Z,5.00
2018-08-03T11:58:01.101Z,5.00
2018-08-03T11:59:01.089Z,5.10
2018-08-03T12:00:01.122Z,5.00
2018-08-03T12:01:01.104Z,5.10
2018-08-03T12:02:01.146Z,4.90
2018-08-03T12:03:01.052Z,5.00
2018-08-03T12:04:01.039Z,5.10
2018-08-03T12:05:01.043Z,4.70
2018-08-03T12:06:01.054Z,4.80
2018-08-03T12:07:01.011Z,5.10
2018-08-03T12:08:01.013Z,5.20
2018-08-03T12:09:01.001Z,4.90
2018-08-03T12:10:00.993Z,4.80
2018-08-03T12:11:00.977Z,4.80
2018-08-03T12:12:01.008Z,4.80
2018-08-03T12:13:00.967Z,4.50
2018-08-03T12:14:00.972Z,4.90
2018-08-03T12:15:00.954Z,4.70
2018-08-03T12:16:00.938Z,4.80
2018-08-03T12:17:00.936Z,4.30
2018-08-03T12:18:01.044Z,4.80
2018-08-03T12:19:00.939Z,4.60
2018-08-03T12:20:00.951Z,4.70
2018-08-03T12:21:00.909Z,4.50
2018-08-03T12:22:00.929Z,4.80
2018-08-03T12:23:00.893Z,4.70
2018-08-03T12:24:00.880Z,4.70
2018-08-03T12:25:00.874Z,4.60
2018-08-03T12:26:00.870Z,5.00
2018-08-03T12:27:00.861Z,4.80
2018-08-03T12:28:00.880Z,4.80
2018-08-03T12:29:00.854Z,4.80
2018-08-03T12:30:00.836Z,4.50
2018-08-03T12:31:00.829Z,4.70
2018-08-03T12:32:00.829Z,4.60
2018-08-03T12:33:00.821Z,5.00
2018-08-03T12:34:00.832Z,4.70
2018-08-03T12:35:00.823Z,4.70
2018-08-03T12:36:00.801Z,4.80
2018-08-03T12:37:00.839Z,4.70
2018-08-03T12:38:00.785Z,4.30
2018-08-03T12:39:00.799Z,4.60
2018-08-03T12:40:00.768Z,4.50
2018-08-03T12:41:00.761Z,4.70
2018-08-03T12:42:00.749Z,4.50
2018-08-03T12:43:00.740Z,4.60
2018-08-03T12:44:00.738Z,4.50
2018-08-03T12:45:00.762Z,4.60
2018-08-03T12:46:00.724Z,4.10
2018-08-03T12:47:00.711Z,4.40
2018-08-03T12:48:00.699Z,4.50
2018-08-03T12:49:00.711Z,4.60
2018-08-03T12:50:00.710Z,4.40
2018-08-03T12:51:00.706Z,4.60
2018-08-03T12:52:00.676Z,4.50
2018-08-03T12:53:00.768Z,4.80
2018-08-03T12:54:00.659Z,4.60
2018-08-03T12:55:00.658Z,4.70
2018-08-03T12:56:00.665Z,4.50
2018-08-03T12:57:00.634Z,4.90
2018-08-03T12:58:00.639Z,4.60
2018-08-03T12:59:00.636Z,4.80
2018-08-03T13:00:00.623Z,4.30
2018-08-03T13:01:00.616Z,4.80
2018-08-03T13:02:00.625Z,4.60
2018-08-03T13:03:00.591Z,4.80
2018-08-03T13:04:00.589Z,4.80
2018-08-03T13:05:00.591Z,4.50
2018-08-03T13:06:00.573Z,4.40
2018-08-03T13:07:00.561Z,4.60
2018-08-03T13:08:00.747Z,4.50
2018-08-03T13:09:00.544Z,4.70